Time;durP1;ratioP1;P1;durP2;ratioP2;P2;SDS_P1;SDS_P2;PMS_P1;PMS_P2;Temp;Humidity;BMP_temperature;BMP_pressure;BME280_temperature;BME280_humidity;BME280_pressure;Samples;Min_cycle;Max_cycle;Signal;HPM_P1;HPM_P2
2022/11/15 00:00:26;;;;;;;;;;;;;;;14.12;54.61;100830.00;5079460;28;19959;-65
2022/11/15 00:02:54;;;;;;;;;;;;;;;14.14;54.46;100827.34;5077963;28;19924;-66
2022/11/15 00:05:20;;;;;;;;;;;;;;;14.15;54.65;100824.66;5079613;28;19932;-65
2022/11/15 00:07:45;;;;;;;;;;;;;;;14.07;54.43;100823.13;5078430;28;19927;-64
2022/11/15 00:10:10;;;;;;;;;;;;;;;14.05;54.38;100820.56;5079411;28;20399;-65
2022/11/15 00:12:35;;;;;;;;;;;;;;;14.10;54.64;100815.13;5077774;28;19932;-65
2022/11/15 00:15:01;;;;;;;;;;;;;;;14.08;54.39;100816.94;5076751;28;19931;-64
2022/11/15 00:17:26;;;;;;;;;;;;;;;14.13;54.47;100815.06;5073957;28;19924;-65
2022/11/15 00:19:51;;;;;;;;;;;;;;;14.01;54.55;100825.06;5093218;28;19931;-65
2022/11/15 00:22:16;;;;;;;;;;;;;;;14.11;54.63;100808.94;5090883;28;19931;-65
2022/11/15 00:24:42;;;;;;;;;;;;;;;14.05;54.68;100810.84;5092530;28;19955;-65
2022/11/15 00:27:07;;;;;;;;;;;;;;;14.03;54.77;100806.50;5090026;28;19931;-65
2022/11/15 00:29:33;;;;;;;;;;;;;;;13.92;54.90;100800.66;5065888;28;20047;-64
2022/11/15 00:31:58;;;;;;;;;;;;;;;13.88;54.95;100797.25;5077565;28;19925;-64
2022/11/15 00:34:23;;;;;;;;;;;;;;;13.87;55.36;100799.94;5078898;28;20014;-64
2022/11/15 00:36:48;;;;;;;;;;;;;;;13.87;55.37;100792.88;5077814;28;19974;-64
2022/11/15 00:39:14;;;;;;;;;;;;;;;13.91;55.12;100791.00;5082628;28;20363;-65
2022/11/15 00:41:39;;;;;;;;;;;;;;;13.92;54.96;100790.97;5077639;28;20307;-64
2022/11/15 00:44:04;;;;;;;;;;;;;;;13.92;54.95;100790.97;5077543;28;19932;-66
2022/11/15 00:46:29;;;;;;;;;;;;;;;13.90;55.26;100792.78;5060096;28;19932;-65
2022/11/15 00:48:55;;;;;;;;;;;;;;;13.91;55.22;100780.44;5077893;28;19921;-64
2022/11/15 00:51:20;;;;;;;;;;;;;;;13.91;54.93;100791.88;5078159;28;20362;-64
2022/11/15 00:53:45;;;;;;;;;;;;;;;14.02;55.02;100781.00;5077698;28;19924;-65
2022/11/15 00:56:10;;;;;;;;;;;;;;;13.95;54.82;100776.81;5078324;28;19928;-65
2022/11/15 00:58:36;;;;;;;;;;;;;;;13.79;55.28;100786.94;5059374;28;19924;-65
2022/11/15 01:01:08;;;;;;;;;;;;;;;13.72;55.35;100773.06;5076829;28;20021;-65
2022/11/15 01:03:34;;;;;;;;;;;;;;;13.79;55.26;100774.59;5103150;28;20012;-65
2022/11/15 01:06:00;;;;;;;;;;;;;;;13.76;55.35;100773.81;5077271;28;19998;-65
2022/11/15 01:08:25;;;;;;;;;;;;;;;13.84;55.50;100761.25;5077739;28;19924;-65
2022/11/15 01:10:50;;;;;;;;;;;;;;;13.87;55.20;100757.69;5077441;28;19943;-65
2022/11/15 01:13:15;;;;;;;;;;;;;;;13.86;55.16;100756.81;5078148;28;19932;-66
2022/11/15 01:15:41;;;;;;;;;;;;;;;13.74;55.53;100754.53;5078791;28;19927;-63
2022/11/15 01:18:07;;;;;;;;;;;;;;;13.80;55.35;100751.69;5079781;28;20000;-65
2022/11/15 01:20:32;;;;;;;;;;;;;;;13.84;55.31;100741.91;5058637;28;19932;-65
2022/11/15 01:22:57;;;;;;;;;;;;;;;13.77;55.30;100739.47;5077201;28;19975;-65
2022/11/15 01:25:23;;;;;;;;;;;;;;;13.74;55.45;100734.25;5077805;28;19982;-65
2022/11/15 01:27:48;;;;;;;;;;;;;;;13.75;55.58;100729.84;5076809;28;19931;-65
2022/11/15 01:30:13;;;;;;;;;;;;;;;13.78;55.62;100741.19;5082320;28;19924;-65
2022/11/15 01:32:39;;;;;;;;;;;;;;;13.80;55.48;100730.56;5088945;28;20015;-65
2022/11/15 01:35:04;;;;;;;;;;;;;;;13.81;55.41;100729.69;5076744;28;19925;-65
2022/11/15 01:37:29;;;;;;;;;;;;;;;13.85;55.30;100726.03;5078401;28;20547;-66
2022/11/15 01:39:55;;;;;;;;;;;;;;;13.94;55.24;100720.47;5078537;28;19950;-65
2022/11/15 01:42:20;;;;;;;;;;;;;;;13.93;55.19;100718.75;5078345;28;19924;-65
2022/11/15 01:44:52;;;;;;;;;;;;;;;13.87;55.17;100708.34;5086695;28;19967;-65
2022/11/15 01:47:26;;;;;;;;;;;;;;;13.81;55.41;100713.84;5078120;28;19974;-65
2022/11/15 01:49:55;;;;;;;;;;;;;;;13.86;55.56;100716.34;5076932;28;19931;-66
2022/11/15 01:52:21;;;;;;;;;;;;;;;13.89;55.36;100706.53;5077069;28;19929;-65
2022/11/15 01:54:50;;;;;;;;;;;;;;;13.90;55.57;100707.41;5075844;28;20376;-65
2022/11/15 01:57:15;;;;;;;;;;;;;;;13.91;55.28;100695.91;5077050;28;19982;-66
2022/11/15 01:59:43;;;;;;;;;;;;;;;13.88;55.37;100688.94;5076286;28;19939;-65
2022/11/15 02:02:08;;;;;;;;;;;;;;;13.90;55.29;100694.19;5077342;28;19924;-65
2022/11/15 02:04:36;;;;;;;;;;;;;;;13.87;55.45;100687.22;5073806;28;19965;-65
2022/11/15 02:07:02;;;;;;;;;;;;;;;13.88;55.29;100688.94;5074682;28;20015;-66
2022/11/15 02:09:28;;;;;;;;;;;;;;;13.87;55.56;100683.72;5074221;28;19924;-67
2022/11/15 02:11:54;;;;;;;;;;;;;;;13.91;55.25;100680.06;5075651;28;19920;-65
2022/11/15 02:14:20;;;;;;;;;;;;;;;13.93;55.54;100672.97;5074952;28;19933;-65
2022/11/15 02:16:54;;;;;;;;;;;;;;;13.86;55.30;100669.66;5078332;28;19927;-65
2022/11/15 02:19:20;;;;;;;;;;;;;;;13.83;55.51;100664.44;5076940;28;20293;-65
2022/11/15 02:22:03;;;;;;;;;;;;;;;13.82;55.55;100668.00;5075796;28;19966;-65
2022/11/15 02:24:35;;;;;;;;;;;;;;;13.87;55.55;100667.88;5103534;28;20380;-65
2022/11/15 02:27:06;;;;;;;;;;;;;;;13.87;55.51;100663.44;5078335;28;20329;-65
2022/11/15 02:29:49;;;;;;;;;;;;;;;13.85;55.47;100667.94;5084148;28;19945;-65
2022/11/15 02:32:27;;;;;;;;;;;;;;;13.81;55.63;100661.00;5077165;28;19966;-66
2022/11/15 02:34:55;;;;;;;;;;;;;;;13.86;55.48;100664.38;5074387;28;19951;-65
2022/11/15 02:37:23;;;;;;;;;;;;;;;13.77;55.80;100662.03;5078456;28;19959;-65
2022/11/15 02:39:48;;;;;;;;;;;;;;;13.76;55.85;100654.97;5075719;28;20073;-65
2022/11/15 02:45:27;;;;;;;;;;;;;;;13.78;55.86;100648.75;5076611;28;19973;-65
2022/11/15 02:47:55;;;;;;;;;;;;;;;13.70;55.77;100647.25;5074584;28;19921;-63
2022/11/15 02:50:23;;;;;;;;;;;;;;;13.71;55.99;100639.28;5081515;28;20486;-64
2022/11/15 02:52:48;;;;;;;;;;;;;;;13.75;55.93;100640.91;5089978;28;19926;-64
2022/11/15 02:55:46;;;;;;;;;;;;;;;13.73;56.03;100626.06;5088758;28;19920;-65
2022/11/15 02:58:30;;;;;;;;;;;;;;;13.73;56.21;100615.50;5044141;28;19920;-65
2022/11/15 03:01:02;;;;;;;;;;;;;;;13.73;56.08;100620.78;5071546;28;20014;-65
2022/11/15 03:03:30;;;;;;;;;;;;;;;13.74;55.95;100633.06;5075359;28;20019;-64
2022/11/15 03:06:20;;;;;;;;;;;;;;;13.74;56.20;100618.06;5077459;28;19965;-66
2022/11/15 03:09:02;;;;;;;;;;;;;;;13.67;56.23;100618.31;5089854;28;19954;-65
2022/11/15 03:11:28;;;;;;;;;;;;;;;13.70;56.27;100615.56;5088559;28;19920;-66
2022/11/15 03:14:09;;;;;;;;;;;;;;;13.70;55.97;100618.22;5089994;28;19920;-66
2022/11/15 03:16:34;;;;;;;;;;;;;;;13.67;56.36;100620.94;5095184;28;19920;-64
2022/11/15 03:19:04;;;;;;;;;;;;;;;13.72;56.50;100613.75;5075220;28;19932;-64
2022/11/15 03:21:32;;;;;;;;;;;;;;;13.60;56.96;100607.06;5072324;28;19932;-64
2022/11/15 03:24:00;;;;;;;;;;;;;;;13.70;56.27;100618.22;5077337;28;19927;-66
2022/11/15 03:26:25;;;;;;;;;;;;;;;13.72;56.23;100611.09;5074026;28;20587;-65
2022/11/15 03:29:00;;;;;;;;;;;;;;;13.68;56.30;100607.69;5073266;28;20355;-66
2022/11/15 03:31:46;;;;;;;;;;;;;;;13.58;56.39;100608.91;5074325;28;19929;-65
2022/11/15 03:34:19;;;;;;;;;;;;;;;13.57;56.48;100603.66;5075329;28;19966;-65
2022/11/15 03:36:45;;;;;;;;;;;;;;;13.55;56.45;100598.41;5085267;28;19920;-65
2022/11/15 03:39:12;;;;;;;;;;;;;;;13.61;56.46;100597.38;5078106;28;19928;-66
2022/11/15 03:41:46;;;;;;;;;;;;;;;13.67;56.51;100594.53;5078531;28;19921;-65
2022/11/15 03:44:34;;;;;;;;;;;;;;;13.70;56.21;100597.94;5082473;28;19920;-65
2022/11/15 03:47:07;;;;;;;;;;;;;;;13.61;56.26;100597.38;5078067;28;19923;-65
2022/11/15 03:49:34;;;;;;;;;;;;;;;13.59;56.44;100609.75;5076127;28;21590;-65
2022/11/15 03:52:00;;;;;;;;;;;;;;;13.60;56.52;100612.34;5077059;28;19928;-65
2022/11/15 03:54:25;;;;;;;;;;;;;;;13.60;56.85;100596.50;5079224;28;20419;-64
2022/11/15 03:56:51;;;;;;;;;;;;;;;13.53;56.57;100595.84;5078259;28;20011;-65
2022/11/15 03:59:18;;;;;;;;;;;;;;;13.47;56.79;100592.50;5078343;28;20358;-65
2022/11/15 04:01:43;;;;;;;;;;;;;;;13.12;57.15;100591.72;5078513;28;20288;-65
2022/11/15 04:04:08;;;;;;;;;;;;;;;12.58;58.95;100590.59;5077211;28;19925;-65
2022/11/15 04:06:33;;;;;;;;;;;;;;;12.41;59.53;100582.28;5077808;28;19970;-66
2022/11/15 04:08:59;;;;;;;;;;;;;;;12.40;59.63;100584.94;5075875;28;19920;-64
2022/11/15 04:11:24;;;;;;;;;;;;;;;12.45;59.80;100589.19;5073175;28;19924;-66
2022/11/15 04:13:49;;;;;;;;;;;;;;;12.40;59.91;100590.19;5092660;28;19977;-65
2022/11/15 04:16:15;;;;;;;;;;;;;;;12.40;59.85;100591.06;5091013;28;19973;-66
2022/11/15 04:18:40;;;;;;;;;;;;;;;12.41;60.06;100592.81;5078560;28;19921;-65
2022/11/15 04:26:20;;;;;;;;;;;;;;;12.06;60.80;100593.69;5079184;28;20039;-65
2022/11/15 04:31:29;;;;;;;;;;;;;;;11.91;61.22;100591.41;5078067;28;19926;-66
2022/11/15 04:33:54;;;;;;;;;;;;;;;11.97;61.16;100578.97;5078054;28;19926;-65
2022/11/15 04:39:03;;;;;;;;;;;;;;;12.14;60.77;100577.69;5092574;28;19927;-65
2022/11/15 04:41:29;;;;;;;;;;;;;;;12.17;60.74;100586.41;5091006;28;19925;-65
2022/11/15 04:43:54;;;;;;;;;;;;;;;12.20;60.71;100588.06;5085846;28;19924;-65
2022/11/15 04:46:20;;;;;;;;;;;;;;;12.16;60.89;100586.41;5078599;28;20386;-65
2022/11/15 04:48:45;;;;;;;;;;;;;;;12.19;60.74;100570.53;5075671;28;20356;-65
2022/11/15 04:51:10;;;;;;;;;;;;;;;12.25;60.85;100580.94;5077507;28;19964;-65
2022/11/15 04:53:35;;;;;;;;;;;;;;;12.27;60.78;100573.84;5076908;28;19932;-65
2022/11/15 04:56:01;;;;;;;;;;;;;;;12.34;60.55;100575.41;5088379;28;19928;-66
2022/11/15 04:58:26;;;;;;;;;;;;;;;12.38;60.47;100574.44;5082136;28;19983;-66
2022/11/15 05:00:51;;;;;;;;;;;;;;;12.40;60.37;100563.84;5086868;28;19931;-65
2022/11/15 05:06:00;;;;;;;;;;;;;;;12.36;60.45;100568.31;5091417;28;19950;-65
2022/11/15 05:08:25;;;;;;;;;;;;;;;12.33;60.59;100563.16;5089003;28;20379;-65
2022/11/15 05:10:51;;;;;;;;;;;;;;;12.36;60.73;100564.84;5092314;28;19924;-65
2022/11/15 05:13:16;;;;;;;;;;;;;;;12.40;60.53;100563.84;5089999;28;19920;-65
2022/11/15 05:15:41;;;;;;;;;;;;;;;12.33;61.90;100564.03;5090554;28;19928;-66
2022/11/15 05:18:07;;;;;;;;;;;;;;;12.34;60.84;100564.88;5061413;28;20273;-65
2022/11/15 05:20:32;;;;;;;;;;;;;;;12.37;60.72;100564.81;5059992;28;20303;-65
2022/11/15 05:22:57;;;;;;;;;;;;;;;12.33;61.03;100576.34;5077119;28;19920;-66
2022/11/15 05:25:23;;;;;;;;;;;;;;;12.23;60.54;100569.56;5056694;28;19929;-66
2022/11/15 05:27:48;;;;;;;;;;;;;;;11.99;61.14;100569.25;5074871;28;19925;-66
2022/11/15 05:30:14;;;;;;;;;;;;;;;12.06;61.08;100570.84;5076542;28;20383;-66
2022/11/15 05:32:40;;;;;;;;;;;;;;;12.05;61.12;100563.84;5071194;28;20013;-66
2022/11/15 05:35:06;;;;;;;;;;;;;;;12.01;61.11;100570.09;5074796;28;20029;-66
2022/11/15 05:37:32;;;;;;;;;;;;;;;11.70;61.89;100561.16;5092567;28;19927;-65
2022/11/15 05:39:57;;;;;;;;;;;;;;;11.69;62.25;100569.94;5081601;28;19916;-65
2022/11/15 05:42:22;;;;;;;;;;;;;;;11.42;62.74;100553.91;5068906;28;19928;-66
2022/11/15 05:44:49;;;;;;;;;;;;;;;11.42;62.86;100553.91;5073653;28;19932;-65
2022/11/15 05:47:21;;;;;;;;;;;;;;;11.49;62.73;100557.25;5076636;28;19928;-67
2022/11/15 05:49:47;;;;;;;;;;;;;;;11.63;62.91;100559.56;5076797;28;19963;-65
2022/11/15 05:52:14;;;;;;;;;;;;;;;11.68;62.43;100555.06;5061402;28;20360;-66
2022/11/15 05:54:40;;;;;;;;;;;;;;;11.79;62.36;100556.53;5085480;28;19973;-66
2022/11/15 05:57:05;;;;;;;;;;;;;;;11.87;62.18;100569.56;5088280;28;19924;-66
2022/11/15 05:59:31;;;;;;;;;;;;;;;11.82;62.04;100563.50;5076510;28;20371;-66
2022/11/15 06:01:57;;;;;;;;;;;;;;;11.60;62.70;100561.38;5076242;28;19921;-66
2022/11/15 06:04:22;;;;;;;;;;;;;;;11.56;62.34;100572.84;5076340;28;19924;-66
2022/11/15 06:06:47;;;;;;;;;;;;;;;11.60;62.55;100564.00;5080352;28;21651;-66
2022/11/15 06:09:12;;;;;;;;;;;;;;;11.67;62.46;100561.22;5076635;28;19924;-66
2022/11/15 06:11:38;;;;;;;;;;;;;;;11.69;62.21;100575.22;5089008;28;19928;-66
2022/11/15 06:14:03;;;;;;;;;;;;;;;11.67;62.18;100572.63;5085599;28;20314;-66
2022/11/15 06:16:28;;;;;;;;;;;;;;;11.59;62.33;100578.06;5080381;28;20004;-66
2022/11/15 06:18:53;;;;;;;;;;;;;;;11.63;62.32;100575.38;5075295;28;19933;-65
2022/11/15 06:21:19;;;;;;;;;;;;;;;11.47;62.65;100575.72;5058108;28;20007;-65
2022/11/15 06:23:44;;;;;;;;;;;;;;;11.35;62.78;100568.09;5056778;28;19924;-65
2022/11/15 06:26:09;;;;;;;;;;;;;;;11.32;63.11;100573.41;5075114;28;19955;-66
2022/11/15 06:28:35;;;;;;;;;;;;;;;11.26;63.44;100570.94;5071621;28;20291;-66
2022/11/15 06:31:08;;;;;;;;;;;;;;;11.44;63.09;100565.25;5061038;28;19962;-66
2022/11/15 06:33:33;;;;;;;;;;;;;;;11.58;62.87;100572.84;5076102;28;19921;-66
2022/11/15 06:36:06;;;;;;;;;;;;;;;11.69;62.68;100575.22;5075608;28;19917;-65
2022/11/15 06:38:31;;;;;;;;;;;;;;;11.79;62.70;100571.47;5075285;28;19925;-66
2022/11/15 06:41:03;;;;;;;;;;;;;;;11.84;62.34;100570.47;5073980;28;20023;-65
2022/11/15 06:43:28;;;;;;;;;;;;;;;11.89;62.33;100566.88;5075947;28;19978;-67
2022/11/15 06:45:54;;;;;;;;;;;;;;;11.99;61.97;100579.78;5073763;28;19921;-66
2022/11/15 06:48:19;;;;;;;;;;;;;;;12.02;61.85;100578.88;5075141;28;21338;-65
2022/11/15 06:50:50;;;;;;;;;;;;;;;12.06;61.64;100576.13;5080259;28;19920;-66
2022/11/15 06:53:15;;;;;;;;;;;;;;;12.06;61.44;100576.13;5079074;28;19920;-66
2022/11/15 06:55:41;;;;;;;;;;;;;;;12.12;61.18;100571.59;5090854;28;19935;-66
2022/11/15 06:58:06;;;;;;;;;;;;;;;12.13;60.98;100571.56;5087125;28;20367;-66
2022/11/15 07:00:31;;;;;;;;;;;;;;;12.13;61.15;100555.78;5089349;28;19992;-65
2022/11/15 07:02:59;;;;;;;;;;;;;;;12.09;61.04;100556.75;5075680;28;19939;-67
2022/11/15 07:05:24;;;;;;;;;;;;;;;12.13;61.07;100553.13;5088892;28;19920;-66
2022/11/15 07:07:53;;;;;;;;;;;;;;;12.18;61.10;100553.00;5092895;28;20294;-65
2022/11/15 07:10:18;;;;;;;;;;;;;;;12.21;60.96;100555.56;5093837;28;19916;-66
2022/11/15 07:12:46;;;;;;;;;;;;;;;12.28;61.10;100552.72;5093696;28;20031;-67
2022/11/15 07:15:11;;;;;;;;;;;;;;;12.31;61.01;100544.75;5075719;28;19921;-65
2022/11/15 07:17:37;;;;;;;;;;;;;;;12.32;60.67;100549.09;5076277;28;20360;-66
2022/11/15 07:20:03;;;;;;;;;;;;;;;12.40;60.51;100550.66;5077193;28;20003;-66
2022/11/15 07:22:28;;;;;;;;;;;;;;;12.40;60.41;100556.81;5077193;28;19970;-65
2022/11/15 07:24:53;;;;;;;;;;;;;;;12.22;60.85;100557.28;5077036;28;19921;-65
2022/11/15 07:27:19;;;;;;;;;;;;;;;12.31;60.68;100564.97;5068137;28;19920;-65
2022/11/15 07:29:44;;;;;;;;;;;;;;;12.33;60.49;100557.91;5092076;28;19970;-65
2022/11/15 07:32:09;;;;;;;;;;;;;;;12.16;60.11;100562.72;5076683;28;19920;-66
2022/11/15 07:34:35;;;;;;;;;;;;;;;12.22;60.57;100559.94;5072747;28;20303;-67
2022/11/15 07:37:00;;;;;;;;;;;;;;;12.27;60.42;100568.56;5077313;28;19973;-66
2022/11/15 07:39:25;;;;;;;;;;;;;;;12.32;60.52;100575.44;5095432;28;19949;-66
2022/11/15 07:42:52;;;;;;;;;;;;;;;12.34;60.63;100570.16;5096927;28;19963;-64
2022/11/15 07:44:36;;;;;;;;;;;;;;;12.35;60.62;100573.66;5076477;28;19920;-66
2022/11/15 07:47:01;;;;;;;;;;;;;;;12.41;60.89;100570.84;5092742;28;19924;-65
2022/11/15 07:49:26;;;;;;;;;;;;;;;12.39;60.65;100565.63;5097207;28;20290;-66
2022/11/15 07:51:51;;;;;;;;;;;;;;;12.33;60.99;100564.03;5095083;28;19991;-66
2022/11/15 07:54:16;;;;;;;;;;;;;;;12.28;60.60;100562.38;5097076;28;20010;-66
2022/11/15 07:56:42;;;;;;;;;;;;;;;12.29;60.78;100572.91;5080552;28;19920;-66
2022/11/15 07:59:07;;;;;;;;;;;;;;;12.33;60.81;100569.28;5097639;28;19920;-66
2022/11/15 08:01:32;;;;;;;;;;;;;;;12.35;60.57;100566.59;5085382;28;20376;-66
2022/11/15 08:03:57;;;;;;;;;;;;;;;12.38;60.67;100563.91;5076168;28;19959;-68
2022/11/15 08:06:23;;;;;;;;;;;;;;;12.42;60.39;100559.41;5076999;28;19920;-67
2022/11/15 08:08:48;;;;;;;;;;;;;;;12.46;60.23;100550.53;5077448;28;19924;-67
2022/11/15 08:11:13;;;;;;;;;;;;;;;12.49;60.31;100556.56;5059485;28;19946;-66
2022/11/15 08:13:38;;;;;;;;;;;;;;;12.48;59.87;100554.81;5078245;28;19924;-66
2022/11/15 08:16:05;;;;;;;;;;;;;;;12.48;59.75;100554.81;5084511;28;20379;-66
2022/11/15 08:18:30;;;;;;;;;;;;;;;12.42;60.04;100549.75;5091522;28;20328;-66
2022/11/15 08:21:00;;;;;;;;;;;;;;;12.40;60.72;100554.16;5090859;28;19927;-67
2022/11/15 08:23:25;;;;;;;;;;;;;;;12.38;59.99;100550.72;5091295;28;19924;-66
2022/11/15 08:25:50;;;;;;;;;;;;;;;12.36;59.90;100547.25;5092409;28;19982;-65
2022/11/15 08:28:17;;;;;;;;;;;;;;;12.37;60.03;100553.38;5073107;28;20277;-67
2022/11/15 08:30:42;;;;;;;;;;;;;;;12.39;60.00;100549.81;5090769;28;19923;-65
2022/11/15 08:33:12;;;;;;;;;;;;;;;12.49;59.88;100548.66;5069370;28;19938;-66
2022/11/15 08:35:37;;;;;;;;;;;;;;;12.47;59.59;100550.47;5079784;28;19920;-66
2022/11/15 08:38:03;;;;;;;;;;;;;;;12.54;59.66;100554.69;5079127;28;19924;-67
2022/11/15 08:40:28;;;;;;;;;;;;;;;12.55;59.51;100556.41;5089587;28;19985;-67
2022/11/15 08:42:53;;;;;;;;;;;;;;;12.46;59.57;100561.06;5075682;28;19932;-67
2022/11/15 08:45:19;;;;;;;;;;;;;;;12.46;59.62;100566.34;5064731;28;19985;-66
2022/11/15 08:47:44;;;;;;;;;;;;;;;12.43;59.69;100559.38;5086008;28;19982;-66
2022/11/15 08:50:09;;;;;;;;;;;;;;;12.45;59.59;100565.47;5090659;28;20336;-66
2022/11/15 08:52:35;;;;;;;;;;;;;;;12.48;59.80;100565.38;5092264;28;19931;-66
2022/11/15 08:55:00;;;;;;;;;;;;;;;12.38;59.45;100561.25;5090619;28;19924;-66
2022/11/15 08:57:28;;;;;;;;;;;;;;;12.02;60.11;100574.47;5089399;28;19931;-66
2022/11/15 08:59:53;;;;;;;;;;;;;;;11.64;61.06;100571.81;5091311;28;19920;-66
2022/11/15 09:02:18;;;;;;;;;;;;;;;11.52;61.33;100570.34;5091137;28;20386;-66
2022/11/15 09:04:44;;;;;;;;;;;;;;;11.45;61.64;100567.00;5092220;28;19924;-65
2022/11/15 09:07:10;;;;;;;;;;;;;;;11.32;61.85;100562.88;5090198;28;20399;-66
2022/11/15 09:09:36;;;;;;;;;;;;;;;11.46;62.45;100567.84;5091857;28;19995;-65
2022/11/15 09:12:01;;;;;;;;;;;;;;;11.67;61.90;100550.72;5090342;28;19963;-66
2022/11/15 09:14:26;;;;;;;;;;;;;;;11.90;61.43;100553.69;5073599;28;19921;-66
2022/11/15 09:16:52;;;;;;;;;;;;;;;12.09;61.00;100546.22;5074053;28;19946;-65
2022/11/15 09:19:17;;;;;;;;;;;;;;;12.15;60.65;100548.66;5060123;28;19963;-66
2022/11/15 09:21:42;;;;;;;;;;;;;;;12.25;60.48;100547.53;5077304;28;19924;-66
2022/11/15 09:24:08;;;;;;;;;;;;;;;12.19;59.73;100549.47;5077816;28;20095;-65
2022/11/15 09:26:33;;;;;;;;;;;;;;;12.17;60.59;100538.97;5075732;28;19932;-66
2022/11/15 09:28:59;;;;;;;;;;;;;;;12.25;60.53;100544.06;5077721;28;19920;-65
2022/11/15 09:31:24;;;;;;;;;;;;;;;12.27;60.38;100539.59;5075855;28;20280;-66
2022/11/15 09:33:49;;;;;;;;;;;;;;;12.30;60.27;100539.53;5074726;28;20371;-67
2022/11/15 09:36:16;;;;;;;;;;;;;;;12.34;60.09;100543.81;5074168;28;19968;-66
2022/11/15 09:38:41;;;;;;;;;;;;;;;12.49;59.96;100550.44;5074650;28;19973;-65
2022/11/15 09:41:07;;;;;;;;;;;;;;;12.63;59.79;100550.06;5074579;28;20019;-66
2022/11/15 09:43:45;;;;;;;;;;;;;;;12.66;59.64;100549.97;5076484;28;19924;-67
2022/11/15 09:46:26;;;;;;;;;;;;;;;12.40;59.08;100548.03;5076172;28;19921;-66
2022/11/15 09:48:56;;;;;;;;;;;;;;;12.20;59.99;100543.28;5076642;28;20024;-67
2022/11/15 09:51:28;;;;;;;;;;;;;;;12.02;60.44;100532.31;5104950;28;19928;-67
2022/11/15 09:54:08;;;;;;;;;;;;;;;11.88;60.80;100538.81;5090623;28;19920;-65
2022/11/15 09:56:37;;;;;;;;;;;;;;;11.76;61.20;100532.06;5070480;28;20422;-66
2022/11/15 09:59:15;;;;;;;;;;;;;;;11.72;61.31;100527.75;5077200;28;20007;-67
2022/11/15 10:01:54;;;;;;;;;;;;;;;11.58;61.66;100525.47;5077751;28;19921;-65
2022/11/15 10:04:20;;;;;;;;;;;;;;;11.56;62.03;100528.13;5069574;28;19920;-66
2022/11/15 10:06:50;;;;;;;;;;;;;;;11.41;62.08;100517.97;5076209;28;20019;-66
2022/11/15 10:09:17;;;;;;;;;;;;;;;11.49;62.20;100516.03;5076165;28;19927;-66
2022/11/15 10:11:42;;;;;;;;;;;;;;;11.46;62.15;100509.97;5085437;28;19981;-65
2022/11/15 10:14:15;;;;;;;;;;;;;;;11.53;62.36;100507.16;5091033;28;20014;-66
2022/11/15 10:16:53;;;;;;;;;;;;;;;11.62;61.87;100513.13;5093799;28;20008;-65
2022/11/15 10:19:37;;;;;;;;;;;;;;;11.57;61.64;100505.34;5093705;28;19916;-65
2022/11/15 10:22:24;;;;;;;;;;;;;;;11.71;61.29;100505.00;5093817;28;19920;-67
2022/11/15 10:24:50;;;;;;;;;;;;;;;11.64;61.87;100503.41;5092388;28;19916;-67
2022/11/15 10:27:16;;;;;;;;;;;;;;;11.64;61.64;100498.13;5093554;28;20334;-67
2022/11/15 10:29:44;;;;;;;;;;;;;;;11.66;61.33;100502.47;5092574;28;19924;-66
2022/11/15 10:32:13;;;;;;;;;;;;;;;11.49;61.57;100502.88;5073283;28;19921;-66
2022/11/15 10:34:39;;;;;;;;;;;;;;;11.41;61.61;100504.81;5072121;28;19921;-66
2022/11/15 10:37:04;;;;;;;;;;;;;;;11.36;62.06;100496.16;5072835;28;20387;-66
2022/11/15 10:39:29;;;;;;;;;;;;;;;11.44;61.83;100496.84;5081133;28;19920;-66
2022/11/15 10:41:55;;;;;;;;;;;;;;;11.42;61.76;100498.66;5080673;28;19927;-65
2022/11/15 10:44:25;;;;;;;;;;;;;;;11.52;61.54;100497.53;5076580;28;19928;-65
2022/11/15 10:46:56;;;;;;;;;;;;;;;11.30;62.18;100498.94;5075968;28;19928;-65
2022/11/15 10:49:21;;;;;;;;;;;;;;;11.19;62.43;100495.69;5080487;28;20002;-65
2022/11/15 10:51:53;;;;;;;;;;;;;;;11.20;62.25;100492.13;5086620;28;20347;-67
2022/11/15 10:54:34;;;;;;;;;;;;;;;11.24;62.44;100494.66;5088840;28;20406;-66
2022/11/15 10:57:00;;;;;;;;;;;;;;;11.53;61.68;100485.22;5077641;28;19924;-65
2022/11/15 10:59:28;;;;;;;;;;;;;;;11.51;61.54;100492.31;5077409;28;19917;-66
2022/11/15 11:01:53;;;;;;;;;;;;;;;11.66;61.24;100481.41;5083137;28;19916;-65
2022/11/15 11:04:19;;;;;;;;;;;;;;;11.59;60.87;100496.47;5092614;28;19950;-65
2022/11/15 11:06:58;;;;;;;;;;;;;;;11.44;61.34;100486.31;5082838;28;19924;-65
2022/11/15 11:09:28;;;;;;;;;;;;;;;11.35;61.92;100486.53;5078750;28;19916;-66
2022/11/15 11:11:53;;;;;;;;;;;;;;;11.40;61.54;100484.66;5078147;28;20011;-65
2022/11/15 11:14:26;;;;;;;;;;;;;;;11.20;62.34;100479.00;5079565;28;19944;-66
2022/11/15 11:17:14;;;;;;;;;;;;;;;11.36;61.84;100483.00;5080139;28;19928;-67
2022/11/15 11:19:46;;;;;;;;;;;;;;;11.21;62.46;100485.97;5086716;28;19923;-66
2022/11/15 11:22:11;;;;;;;;;;;;;;;11.30;62.24;100485.78;5097384;28;19923;-66
2022/11/15 11:24:55;;;;;;;;;;;;;;;11.31;62.00;100483.09;5097103;28;20280;-66
2022/11/15 11:27:23;;;;;;;;;;;;;;;11.44;61.97;100480.19;5075125;28;19970;-66
2022/11/15 11:30:02;;;;;;;;;;;;;;;11.45;61.94;100477.53;5088130;28;19965;-65
2022/11/15 11:32:46;;;;;;;;;;;;;;;11.19;62.28;100483.38;5056576;28;20030;-64
2022/11/15 11:35:14;;;;;;;;;;;;;;;11.22;62.47;100480.69;5057348;28;19920;-66
2022/11/15 11:37:45;;;;;;;;;;;;;;;11.33;62.24;100483.09;5056924;28;20000;-65
2022/11/15 11:40:15;;;;;;;;;;;;;;;11.32;62.13;100478.72;5056977;28;19917;-65
2022/11/15 11:42:47;;;;;;;;;;;;;;;11.34;62.12;100479.56;5089176;28;19917;-65
2022/11/15 11:45:22;;;;;;;;;;;;;;;11.31;62.02;100472.59;5056730;28;20360;-65
2022/11/15 11:47:51;;;;;;;;;;;;;;;11.43;62.18;100467.94;5056887;28;19993;-65
2022/11/15 11:50:36;;;;;;;;;;;;;;;11.60;61.67;100464.00;5095942;28;19932;-65
2022/11/15 11:53:21;;;;;;;;;;;;;;;11.74;61.00;100462.81;5074028;28;20427;-65
2022/11/15 11:55:49;;;;;;;;;;;;;;;11.56;60.90;100474.63;5091160;28;19924;-64
2022/11/15 11:58:15;;;;;;;;;;;;;;;11.31;61.71;100474.34;5090996;28;20045;-65
2022/11/15 12:00:46;;;;;;;;;;;;;;;11.15;61.94;100467.72;5091151;28;20314;-66
2022/11/15 12:03:15;;;;;;;;;;;;;;;10.92;62.58;100469.06;5088719;28;19931;-66
2022/11/15 12:05:43;;;;;;;;;;;;;;;11.14;62.45;100474.75;5079575;28;20437;-65
2022/11/15 12:08:27;;;;;;;;;;;;;;;10.82;62.88;100472.81;5078373;28;20272;-66
2022/11/15 12:11:11;;;;;;;;;;;;;;;11.01;62.73;100474.16;5080731;28;20400;-66
2022/11/15 12:13:38;;;;;;;;;;;;;;;11.01;62.88;100466.28;5075941;28;19916;-65
2022/11/15 12:16:04;;;;;;;;;;;;;;;11.16;62.86;100472.06;5091387;28;20003;-65
2022/11/15 12:18:29;;;;;;;;;;;;;;;11.26;62.30;100470.97;5092507;28;20352;-66
2022/11/15 12:20:55;;;;;;;;;;;;;;;11.38;62.00;100468.06;5073801;28;20009;-66
2022/11/15 12:23:26;;;;;;;;;;;;;;;11.49;61.92;100475.66;5092753;28;19974;-64
2022/11/15 12:25:59;;;;;;;;;;;;;;;11.49;61.78;100473.94;5089912;28;19999;-65
2022/11/15 12:28:24;;;;;;;;;;;;;;;11.52;61.76;100478.25;5092153;28;20019;-65
2022/11/15 12:31:00;;;;;;;;;;;;;;;11.49;61.35;100476.56;5091125;28;19963;-66
2022/11/15 12:33:28;;;;;;;;;;;;;;;11.55;61.51;100467.66;5079481;28;19931;-67
2022/11/15 12:35:58;;;;;;;;;;;;;;;11.55;61.20;100473.78;5082866;28;19963;-66
2022/11/15 12:38:47;;;;;;;;;;;;;;;11.46;61.49;100470.50;5074352;28;20318;-66
2022/11/15 12:41:14;;;;;;;;;;;;;;;11.51;61.52;100472.13;5075513;28;19931;-65
2022/11/15 12:43:40;;;;;;;;;;;;;;;11.53;61.68;100475.59;5089287;28;19920;-66
2022/11/15 12:46:11;;;;;;;;;;;;;;;11.48;61.46;100466.91;5086948;28;19928;-66
2022/11/15 12:48:36;;;;;;;;;;;;;;;11.41;61.55;100464.47;5091266;28;19924;-66
2022/11/15 12:51:02;;;;;;;;;;;;;;;11.34;61.71;100461.13;5077339;28;20307;-65
2022/11/15 12:53:31;;;;;;;;;;;;;;;11.25;61.93;100464.84;5077234;28;19950;-66
2022/11/15 12:56:06;;;;;;;;;;;;;;;11.34;61.72;100463.78;5074855;28;19935;-65